createdAt,value
2018-07-01T00:00:05.292Z,23.90
2018-07-01T00:02:31.267Z,23.95
2018-07-01T00:04:57.245Z,23.88
2018-07-01T00:07:23.189Z,23.86
2018-07-01T00:09:49.159Z,24.01
2018-07-01T00:12:15.119Z,23.91
2018-07-01T00:14:41.111Z,23.81
2018-07-01T00:17:07.103Z,23.87
2018-07-01T00:19:33.047Z,23.90
2018-07-01T00:21:59.023Z,23.88
2018-07-01T00:24:25.040Z,24.02
2018-07-01T00:26:50.979Z,23.92
2018-07-01T00:29:16.928Z,23.79
2018-07-01T00:31:42.904Z,23.81
2018-07-01T00:34:08.883Z,23.94
2018-07-01T00:36:34.855Z,23.92
2018-07-01T00:39:00.879Z,23.78
2018-07-01T00:41:26.911Z,23.81
2018-07-01T00:43:52.906Z,23.80
2018-07-01T00:46:19.136Z,23.79
2018-07-01T00:48:45.092Z,23.79
2018-07-01T00:51:11.078Z,23.70
2018-07-01T00:53:37.044Z,23.75
2018-07-01T00:56:03.004Z,23.90
2018-07-01T00:58:28.979Z,23.76
2018-07-01T01:00:54.950Z,23.70
2018-07-01T01:03:20.945Z,23.69
2018-07-01T01:05:46.908Z,23.69
2018-07-01T01:08:12.947Z,23.74
2018-07-01T01:10:38.906Z,23.77
2018-07-01T01:13:04.892Z,23.70
2018-07-01T01:15:30.912Z,23.73
2018-07-01T01:17:56.873Z,23.60
2018-07-01T01:20:22.867Z,23.67
2018-07-01T01:22:48.848Z,23.70
2018-07-01T01:25:14.947Z,23.74
2018-07-01T01:27:40.910Z,23.68
2018-07-01T01:30:06.880Z,23.68
2018-07-01T01:32:32.841Z,23.71
2018-07-01T01:34:58.810Z,23.57
2018-07-01T01:37:24.782Z,23.76
2018-07-01T01:39:50.768Z,23.68
2018-07-01T01:42:16.723Z,23.64
2018-07-01T01:44:42.696Z,23.61
2018-07-01T01:47:08.668Z,23.60
2018-07-01T01:49:34.715Z,23.63
2018-07-01T01:52:00.655Z,23.63
2018-07-01T01:54:26.616Z,23.56
2018-07-01T01:56:52.632Z,23.62
2018-07-01T01:59:18.590Z,23.59
2018-07-01T02:01:44.600Z,23.67
2018-07-01T02:04:10.575Z,23.63
2018-07-01T02:06:37.198Z,23.61
2018-07-01T02:09:03.264Z,23.68
2018-07-01T02:11:29.251Z,23.66
2018-07-01T02:13:55.220Z,23.62
2018-07-01T02:16:21.199Z,23.60
2018-07-01T02:18:47.178Z,23.52
2018-07-01T02:21:13.148Z,23.56
2018-07-01T02:23:39.112Z,23.50
2018-07-01T02:26:05.093Z,23.58
2018-07-01T02:28:31.063Z,23.46
2018-07-01T02:30:57.019Z,23.56
2018-07-01T02:33:23.008Z,23.53
2018-07-01T02:35:48.963Z,23.51
2018-07-01T02:38:14.944Z,23.52
2018-07-01T02:40:40.955Z,23.39
2018-07-01T02:43:06.925Z,23.49
2018-07-01T02:45:32.886Z,23.43
2018-07-01T02:47:58.844Z,23.51
2018-07-01T02:50:24.815Z,23.51
2018-07-01T02:52:50.771Z,23.49
2018-07-01T02:55:16.792Z,23.53
2018-07-01T02:57:42.765Z,23.63
2018-07-01T03:00:08.760Z,23.59
2018-07-01T03:02:34.733Z,23.57
2018-07-01T03:05:00.705Z,23.64
2018-07-01T03:07:26.667Z,23.52
2018-07-01T03:09:52.649Z,23.45
2018-07-01T03:12:18.627Z,23.43
2018-07-01T03:14:44.561Z,23.49
2018-07-01T03:17:10.528Z,23.51
2018-07-01T03:19:36.516Z,23.47
2018-07-01T03:22:02.499Z,23.30
2018-07-01T03:24:28.570Z,23.41
2018-07-01T03:26:54.548Z,23.32
2018-07-01T03:29:20.565Z,23.36
2018-07-01T03:31:46.525Z,23.33
2018-07-01T03:34:12.503Z,23.33
2018-07-01T03:36:38.474Z,23.39
2018-07-01T03:39:04.486Z,23.43
2018-07-01T03:41:30.437Z,23.47
2018-07-01T03:43:56.417Z,23.52
2018-07-01T03:46:22.466Z,23.47
2018-07-01T03:48:48.433Z,23.41
2018-07-01T03:51:14.400Z,23.42
2018-07-01T03:53:40.370Z,23.45
2018-07-01T03:56:06.357Z,23.41
2018-07-01T03:58:32.327Z,23.35
2018-07-01T04:00:58.283Z,23.38
2018-07-01T04:03:24.263Z,23.30
2018-07-01T04:05:50.246Z,23.25
2018-07-01T04:08:16.215Z,23.32
2018-07-01T04:10:42.205Z,23.28
2018-07-01T04:13:08.184Z,23.32
2018-07-01T04:15:34.167Z,23.31
2018-07-01T04:18:00.184Z,23.31
2018-07-01T04:20:26.138Z,23.21
2018-07-01T04:22:52.103Z,23.24
2018-07-01T04:25:18.132Z,23.33
2018-07-01T04:27:44.095Z,23.29
2018-07-01T04:30:10.054Z,23.31
2018-07-01T04:32:36.008Z,23.32
2018-07-01T04:35:01.974Z,23.36
2018-07-01T04:37:27.920Z,23.32
2018-07-01T04:39:53.902Z,23.29
2018-07-01T04:42:19.874Z,23.22
2018-07-01T04:44:45.824Z,23.34
2018-07-01T04:47:11.786Z,23.30
2018-07-01T04:49:37.788Z,23.25
2018-07-01T04:52:03.745Z,23.24
2018-07-01T04:54:29.688Z,23.28
2018-07-01T04:56:55.649Z,23.21
2018-07-01T04:59:21.618Z,23.21
2018-07-01T05:01:47.639Z,23.25
2018-07-01T05:04:13.624Z,23.28
2018-07-01T05:06:39.603Z,23.16
2018-07-01T05:09:05.567Z,23.19
2018-07-01T05:11:31.550Z,23.16
2018-07-01T05:13:57.502Z,23.17
2018-07-01T05:16:23.493Z,23.30
2018-07-01T05:18:49.439Z,23.22
2018-07-01T05:21:15.401Z,23.22
2018-07-01T05:23:41.367Z,23.27
2018-07-01T05:26:07.314Z,23.27
2018-07-01T05:28:33.279Z,23.19
2018-07-01T05:30:59.284Z,23.24
2018-07-01T05:33:25.283Z,23.16
2018-07-01T05:35:51.319Z,23.16
2018-07-01T05:38:17.241Z,23.24
2018-07-01T05:40:43.219Z,23.17
2018-07-01T05:43:09.965Z,23.03
2018-07-01T05:45:35.914Z,23.09
2018-07-01T05:48:01.885Z,23.09
2018-07-01T05:50:27.985Z,23.17
2018-07-01T05:52:53.915Z,23.20
2018-07-01T05:55:19.916Z,23.19
2018-07-01T05:57:46.384Z,23.16
2018-07-01T06:00:12.344Z,23.14
2018-07-01T06:02:38.306Z,23.09
2018-07-01T06:05:04.272Z,23.15
2018-07-01T06:07:30.231Z,23.28
2018-07-01T06:09:56.200Z,23.21
2018-07-01T06:12:22.173Z,23.33
2018-07-01T06:14:48.125Z,23.32
2018-07-01T06:17:14.121Z,23.17
2018-07-01T06:19:40.071Z,23.22
2018-07-01T06:22:06.035Z,23.20
2018-07-01T06:24:32.049Z,23.26
2018-07-01T06:26:57.953Z,23.22
2018-07-01T06:29:23.920Z,23.25
2018-07-01T06:31:49.909Z,23.43
2018-07-01T06:34:15.865Z,23.35
2018-07-01T06:36:41.808Z,23.33
2018-07-01T06:39:07.761Z,23.18
2018-07-01T06:41:33.730Z,23.29
2018-07-01T06:43:59.764Z,23.39
2018-07-01T06:46:25.728Z,23.29
2018-07-01T06:48:51.692Z,23.28
2018-07-01T06:51:17.818Z,23.30
2018-07-01T06:53:43.839Z,23.32
2018-07-01T06:56:09.892Z,23.36
2018-07-01T06:58:35.844Z,23.47
2018-07-01T07:01:01.811Z,23.54
2018-07-01T07:03:27.788Z,23.52
2018-07-01T07:05:53.775Z,23.61
2018-07-01T07:08:19.730Z,23.47
2018-07-01T07:10:45.713Z,23.64
2018-07-01T07:13:11.669Z,23.54
2018-07-01T07:15:37.645Z,23.51
2018-07-01T07:18:03.641Z,23.60
2018-07-01T07:20:29.646Z,23.61
2018-07-01T07:22:55.580Z,23.61
2018-07-01T07:25:21.631Z,23.63
2018-07-01T07:27:47.601Z,23.75
2018-07-01T07:30:13.576Z,23.74
2018-07-01T07:32:39.540Z,23.82
2018-07-01T07:35:05.502Z,23.88
2018-07-01T07:37:31.474Z,23.87
2018-07-01T07:39:57.441Z,23.88
2018-07-01T07:42:23.387Z,23.74
2018-07-01T07:44:49.461Z,23.72
2018-07-01T07:47:15.463Z,23.80
2018-07-01T07:49:41.434Z,23.76
2018-07-01T07:52:07.412Z,23.75
2018-07-01T07:54:33.365Z,23.80
2018-07-01T07:56:59.425Z,23.74
2018-07-01T07:59:25.470Z,23.71
2018-07-01T08:01:51.434Z,23.78
2018-07-01T08:04:17.403Z,23.73
2018-07-01T08:06:43.349Z,23.81
2018-07-01T08:09:09.334Z,23.87
2018-07-01T08:11:35.299Z,23.95
2018-07-01T08:14:01.285Z,23.91
2018-07-01T08:16:27.257Z,23.89
2018-07-01T08:18:53.261Z,23.89
2018-07-01T08:21:19.226Z,23.85
2018-07-01T08:23:45.173Z,23.88
2018-07-01T08:26:11.145Z,23.93
2018-07-01T08:28:37.099Z,23.89
2018-07-01T08:31:03.767Z,23.96
2018-07-01T08:33:29.742Z,23.96
2018-07-01T08:35:55.692Z,23.84
2018-07-01T08:38:21.672Z,23.86
2018-07-01T08:40:47.735Z,24.00
2018-07-01T08:43:13.743Z,23.89
2018-07-01T08:45:39.786Z,23.92
2018-07-01T08:48:05.808Z,23.93
2018-07-01T08:50:31.767Z,24.00
2018-07-01T08:52:57.852Z,23.90
2018-07-01T08:55:23.827Z,23.99
2018-07-01T08:57:49.823Z,24.02
2018-07-01T09:00:15.757Z,23.91
2018-07-01T09:02:41.785Z,23.84
2018-07-01T09:05:07.765Z,23.93
2018-07-01T09:07:33.818Z,23.92
2018-07-01T09:09:59.905Z,23.91
2018-07-01T09:12:25.902Z,23.93
2018-07-01T09:14:51.872Z,23.95
2018-07-01T09:17:17.947Z,23.91
2018-07-01T09:19:43.888Z,23.99
2018-07-01T09:22:09.873Z,23.98
2018-07-01T09:24:35.844Z,23.89
2018-07-01T09:27:01.838Z,23.91
2018-07-01T09:29:27.800Z,23.98
2018-07-01T09:31:53.768Z,24.00
2018-07-01T09:34:19.871Z,24.03
2018-07-01T09:36:45.836Z,24.04
2018-07-01T09:39:11.812Z,24.03
2018-07-01T09:41:37.772Z,24.03
2018-07-01T09:44:03.731Z,24.03
2018-07-01T09:46:29.779Z,23.99
2018-07-01T09:48:55.763Z,24.07
2018-07-01T09:51:21.735Z,23.98
2018-07-01T09:53:47.696Z,24.03
2018-07-01T09:56:13.673Z,24.02
2018-07-01T09:58:39.667Z,24.00
2018-07-01T10:01:05.680Z,24.01
2018-07-01T10:03:31.619Z,24.02
2018-07-01T10:05:57.596Z,24.01
2018-07-01T10:08:23.560Z,24.00
2018-07-01T10:10:49.520Z,24.04
2018-07-01T10:13:15.601Z,24.10
2018-07-01T10:15:41.604Z,24.00
2018-07-01T10:18:07.669Z,24.02
2018-07-01T10:20:33.693Z,24.11
2018-07-01T10:22:59.733Z,24.20
2018-07-01T10:25:25.733Z,24.18
2018-07-01T10:27:51.754Z,24.04
2018-07-01T10:30:17.824Z,24.07
2018-07-01T10:32:43.840Z,24.01
2018-07-01T10:35:09.872Z,24.01
2018-07-01T10:37:35.837Z,24.09
2018-07-01T10:40:01.921Z,23.98
2018-07-01T10:42:27.872Z,23.92
2018-07-01T10:44:53.876Z,24.03
2018-07-01T10:47:19.930Z,23.91
2018-07-01T10:49:45.922Z,23.97
2018-07-01T10:52:11.972Z,24.08
2018-07-01T10:54:37.988Z,23.99
2018-07-01T10:57:03.977Z,24.00
2018-07-01T10:59:29.952Z,24.01
2018-07-01T11:01:55.931Z,24.00
2018-07-01T11:04:21.948Z,23.96
2018-07-01T11:06:47.938Z,23.95
2018-07-01T11:09:13.927Z,23.95
2018-07-01T11:11:40.034Z,24.06
2018-07-01T11:14:05.962Z,24.15
2018-07-01T11:16:31.951Z,24.10
2018-07-01T11:18:57.941Z,24.22
2018-07-01T11:21:23.900Z,24.04
2018-07-01T11:23:49.879Z,24.10
2018-07-01T11:26:15.873Z,24.00
2018-07-01T11:28:41.892Z,24.00
2018-07-01T11:31:07.897Z,24.04
2018-07-01T11:33:33.903Z,24.05
2018-07-01T11:35:59.946Z,23.98
2018-07-01T11:38:25.911Z,23.97
2018-07-01T11:40:51.905Z,23.94
2018-07-01T11:43:17.958Z,24.04
2018-07-01T11:45:43.928Z,23.99
2018-07-01T11:48:09.885Z,24.00
2018-07-01T11:50:35.851Z,23.94
2018-07-01T11:53:01.827Z,23.99
2018-07-01T11:55:27.800Z,23.98
2018-07-01T11:57:53.763Z,24.10
2018-07-01T12:00:19.720Z,24.08
2018-07-01T12:02:45.724Z,24.04
2018-07-01T12:05:16.663Z,24.02
2018-07-01T12:07:37.780Z,24.11
2018-07-01T12:10:03.783Z,24.07
2018-07-01T12:12:29.761Z,24.03
2018-07-01T12:14:55.854Z,24.12
2018-07-01T12:17:21.856Z,24.09
2018-07-01T12:19:47.828Z,24.08
2018-07-01T12:22:13.818Z,24.05
2018-07-01T12:24:39.771Z,24.10
2018-07-01T12:27:05.765Z,24.07
2018-07-01T12:29:31.732Z,24.04
2018-07-01T12:31:57.724Z,24.15
2018-07-01T12:34:23.724Z,24.11
2018-07-01T12:36:49.778Z,24.11
2018-07-01T12:39:15.739Z,24.07
2018-07-01T12:41:41.716Z,24.07
2018-07-01T12:44:07.682Z,24.11
2018-07-01T12:46:33.654Z,24.10
2018-07-01T12:48:59.643Z,24.07
2018-07-01T12:51:25.608Z,24.22
2018-07-01T12:53:51.582Z,24.23
2018-07-01T12:56:17.588Z,24.23
2018-07-01T12:58:43.503Z,24.21
2018-07-01T13:01:09.468Z,24.22
2018-07-01T13:03:35.440Z,24.14
2018-07-01T13:06:01.401Z,24.23
2018-07-01T13:08:27.413Z,24.24
2018-07-01T13:10:53.362Z,24.22
2018-07-01T13:13:19.344Z,24.20
2018-07-01T13:15:45.340Z,24.25
2018-07-01T13:18:11.304Z,24.18
2018-07-01T13:20:37.253Z,24.27
2018-07-01T13:23:03.210Z,24.29
2018-07-01T13:25:29.199Z,24.21
2018-07-01T13:27:55.160Z,24.25
2018-07-01T13:30:21.177Z,24.31
2018-07-01T13:32:47.154Z,24.25
2018-07-01T13:35:13.139Z,24.30
2018-07-01T13:37:39.113Z,24.31
2018-07-01T13:40:05.251Z,24.31
2018-07-01T13:42:31.226Z,24.29
2018-07-01T13:44:57.219Z,24.32
2018-07-01T13:47:23.295Z,24.37
2018-07-01T13:49:49.335Z,24.25
2018-07-01T13:52:15.272Z,24.31
2018-07-01T13:54:41.267Z,24.35
2018-07-01T13:57:07.352Z,24.33
2018-07-01T13:59:33.351Z,24.30
2018-07-01T14:01:59.389Z,24.38
2018-07-01T14:04:25.380Z,24.28
2018-07-01T14:06:51.364Z,24.34
2018-07-01T14:09:17.413Z,24.31
2018-07-01T14:11:43.427Z,24.26
2018-07-01T14:14:09.567Z,24.33
2018-07-01T14:16:35.564Z,24.35
2018-07-01T14:19:01.577Z,24.34
2018-07-01T14:21:27.632Z,24.36
2018-07-01T14:23:53.628Z,24.32
2018-07-01T14:26:19.599Z,24.26
2018-07-01T14:28:45.576Z,24.24
2018-07-01T14:31:11.585Z,24.27
2018-07-01T14:33:37.650Z,24.29
2018-07-01T14:36:03.634Z,24.30
2018-07-01T14:38:29.702Z,24.35
2018-07-01T14:40:55.665Z,24.29
2018-07-01T14:43:21.647Z,24.32
2018-07-01T14:45:47.624Z,24.32
2018-07-01T14:48:13.581Z,24.32
2018-07-01T14:50:39.549Z,24.28
2018-07-01T14:53:05.529Z,24.33
2018-07-01T14:55:31.524Z,24.35
2018-07-01T14:57:57.491Z,24.42
2018-07-01T15:00:23.474Z,24.43
2018-07-01T15:02:49.518Z,24.39
2018-07-01T15:05:15.539Z,24.56
2018-07-01T15:07:41.522Z,24.47
2018-07-01T15:10:07.533Z,24.35
2018-07-01T15:12:33.504Z,24.53
2018-07-01T15:14:59.481Z,24.64
2018-07-01T15:17:25.467Z,24.77
2018-07-01T15:19:51.457Z,24.57
2018-07-01T15:22:17.463Z,24.53
2018-07-01T15:24:43.557Z,24.42
2018-07-01T15:27:09.527Z,24.44
2018-07-01T15:29:35.495Z,24.36
2018-07-01T15:32:01.475Z,24.41
2018-07-01T15:34:27.468Z,24.87
2018-07-01T15:36:53.464Z,24.58
2018-07-01T15:39:19.427Z,24.49
2018-07-01T15:41:45.404Z,24.66
2018-07-01T15:44:11.327Z,24.57
2018-07-01T15:46:37.307Z,24.56
2018-07-01T15:49:03.296Z,24.42
2018-07-01T15:51:29.265Z,24.46
2018-07-01T15:53:55.229Z,24.54
2018-07-01T15:56:21.225Z,24.52
2018-07-01T15:58:47.203Z,24.47
2018-07-01T16:01:13.166Z,24.60
2018-07-01T16:03:39.152Z,24.70
2018-07-01T16:06:05.168Z,24.67
2018-07-01T16:08:31.142Z,24.67
2018-07-01T16:10:57.273Z,24.47
2018-07-01T16:13:23.307Z,24.47
2018-07-01T16:15:49.353Z,24.55
2018-07-01T16:18:15.484Z,24.58
2018-07-01T16:20:41.446Z,24.70
2018-07-01T16:23:07.499Z,24.55
2018-07-01T16:25:33.656Z,24.48
2018-07-01T16:27:59.646Z,24.53
2018-07-01T16:30:25.625Z,24.51
2018-07-01T16:32:51.706Z,24.52
2018-07-01T16:35:17.680Z,24.68
2018-07-01T16:37:43.737Z,24.71
2018-07-01T16:40:09.722Z,24.47
2018-07-01T16:42:35.742Z,24.66
2018-07-01T16:45:01.751Z,24.55
2018-07-01T16:47:27.728Z,24.66
2018-07-01T16:49:53.696Z,24.61
2018-07-01T16:52:19.673Z,24.89
2018-07-01T16:54:45.783Z,24.49
2018-07-01T16:57:11.831Z,24.43
2018-07-01T16:59:37.829Z,24.54
2018-07-01T17:02:03.815Z,24.66
2018-07-01T17:04:29.794Z,24.73
2018-07-01T17:06:55.764Z,24.61
2018-07-01T17:09:21.800Z,24.50
2018-07-01T17:11:47.797Z,24.66
2018-07-01T17:14:13.815Z,24.45
2018-07-01T17:16:39.795Z,24.46
2018-07-01T17:19:05.806Z,24.59
2018-07-01T17:21:31.784Z,24.55
2018-07-01T17:23:57.781Z,24.70
2018-07-01T17:26:23.845Z,24.58
2018-07-01T17:28:49.986Z,24.58
2018-07-01T17:31:15.987Z,24.65
2018-07-01T17:33:41.992Z,24.59
2018-07-01T17:36:07.935Z,24.70
2018-07-01T17:38:33.937Z,24.65
2018-07-01T17:41:00.118Z,24.45
2018-07-01T17:43:26.113Z,24.37
2018-07-01T17:45:52.159Z,24.60
2018-07-01T17:48:18.169Z,24.59
2018-07-01T17:50:44.212Z,24.47
2018-07-01T17:53:10.201Z,24.44
2018-07-01T17:55:36.177Z,24.62
2018-07-01T17:58:02.136Z,24.56
2018-07-01T18:00:28.149Z,24.61
2018-07-01T18:02:54.244Z,24.45
2018-07-01T18:05:20.243Z,24.60
2018-07-01T18:07:46.298Z,24.54
2018-07-01T18:10:12.295Z,24.48
2018-07-01T18:12:38.445Z,24.44
2018-07-01T18:15:04.508Z,24.46
2018-07-01T18:17:30.500Z,24.56
2018-07-01T18:19:56.534Z,24.57
2018-07-01T18:22:52.492Z,24.62
2018-07-01T18:25:01.548Z,24.71
2018-07-01T18:27:14.552Z,24.55
2018-07-01T18:29:40.552Z,24.49
2018-07-01T18:32:06.581Z,24.58
2018-07-01T18:34:32.568Z,24.41
2018-07-01T18:36:58.578Z,24.56
2018-07-01T18:39:24.581Z,24.57
2018-07-01T18:41:50.706Z,24.49
2018-07-01T18:44:16.733Z,24.43
2018-07-01T18:46:42.770Z,24.54
2018-07-01T18:49:08.779Z,24.54
2018-07-01T18:51:34.808Z,24.53
2018-07-01T18:54:00.836Z,24.45
2018-07-01T18:56:26.851Z,24.43
2018-07-01T18:58:52.829Z,24.56
2018-07-01T19:01:19.768Z,24.38
2018-07-01T19:03:45.856Z,24.56
2018-07-01T19:06:13.520Z,24.62
2018-07-01T19:08:39.602Z,24.42
2018-07-01T19:11:05.612Z,24.42
2018-07-01T19:13:31.656Z,24.35
2018-07-01T19:15:57.627Z,24.37
2018-07-01T19:18:23.687Z,24.50
2018-07-01T19:20:49.691Z,24.49
2018-07-01T19:23:15.671Z,24.36
2018-07-01T19:25:41.693Z,24.40
2018-07-01T19:28:07.691Z,24.40
2018-07-01T19:30:33.736Z,24.34
2018-07-01T19:32:59.752Z,24.31
2018-07-01T19:35:25.787Z,24.25
2018-07-01T19:37:51.781Z,24.21
2018-07-01T19:40:17.783Z,24.28
2018-07-01T19:42:43.896Z,24.35
2018-07-01T19:45:09.793Z,24.26
2018-07-01T19:47:36.048Z,24.32
2018-07-01T19:50:02.081Z,24.24
2018-07-01T19:52:28.084Z,24.22
2018-07-01T19:54:54.073Z,24.38
2018-07-01T19:57:20.082Z,24.33
2018-07-01T19:59:46.081Z,24.35
2018-07-01T20:02:12.108Z,24.29
2018-07-01T20:04:38.145Z,24.31
2018-07-01T20:07:04.154Z,24.28
2018-07-01T20:09:30.120Z,24.33
2018-07-01T20:11:56.288Z,24.30
2018-07-01T20:14:22.243Z,24.32
2018-07-01T20:16:48.273Z,24.25
2018-07-01T20:19:14.305Z,24.24
2018-07-01T20:21:40.291Z,24.24
2018-07-01T20:24:06.251Z,24.25
2018-07-01T20:26:32.253Z,24.20
2018-07-01T20:28:58.343Z,24.20
2018-07-01T20:31:24.332Z,24.17
2018-07-01T20:33:50.363Z,24.27
2018-07-01T20:36:16.383Z,24.24
2018-07-01T20:38:42.744Z,24.30
2018-07-01T20:41:09.095Z,24.25
2018-07-01T20:43:35.407Z,24.14
2018-07-01T20:46:01.964Z,24.20
2018-07-01T20:48:27.993Z,24.19
2018-07-01T20:50:53.981Z,24.20
2018-07-01T20:53:19.962Z,24.26
2018-07-01T20:55:45.969Z,24.34
2018-07-01T20:58:11.940Z,24.22
2018-07-01T21:00:37.945Z,24.26
2018-07-01T21:03:03.975Z,24.39
2018-07-01T21:05:29.984Z,24.27
2018-07-01T21:07:56.058Z,24.34
2018-07-01T21:10:22.131Z,24.56
2018-07-01T21:12:48.130Z,24.29
2018-07-01T21:15:14.092Z,24.25
2018-07-01T21:17:40.098Z,24.41
2018-07-01T21:20:06.055Z,24.20
2018-07-01T21:22:32.054Z,24.18
2018-07-01T21:24:58.086Z,24.14
2018-07-01T21:27:24.081Z,24.15
2018-07-01T21:29:50.093Z,24.21
2018-07-01T21:32:16.114Z,24.21
2018-07-01T21:34:42.106Z,24.12
2018-07-01T21:37:08.129Z,24.18
2018-07-01T21:39:34.137Z,24.15
2018-07-01T21:42:00.220Z,24.14
2018-07-01T21:44:26.241Z,24.10
2018-07-01T21:46:52.190Z,24.14
2018-07-01T21:49:18.163Z,24.13
2018-07-01T21:51:44.136Z,24.13
2018-07-01T21:54:10.129Z,24.13
2018-07-01T21:56:36.195Z,24.20
2018-07-01T21:59:02.228Z,24.18
2018-07-01T22:01:28.207Z,24.09
2018-07-01T22:03:54.244Z,24.14
2018-07-01T22:06:20.228Z,24.09
2018-07-01T22:08:46.228Z,24.13
2018-07-01T22:11:12.231Z,24.09
2018-07-01T22:13:38.242Z,24.19
2018-07-01T22:16:04.202Z,24.13
2018-07-01T22:18:30.165Z,24.19
2018-07-01T22:20:56.240Z,24.10
2018-07-01T22:23:22.227Z,24.16
2018-07-01T22:25:48.229Z,24.22
2018-07-01T22:28:14.217Z,24.25
2018-07-01T22:30:40.229Z,24.31
2018-07-01T22:33:06.222Z,24.33
2018-07-01T22:35:32.558Z,24.22
2018-07-01T22:37:58.624Z,24.26
2018-07-01T22:40:24.692Z,24.27
2018-07-01T22:42:50.716Z,24.20
2018-07-01T22:45:16.875Z,24.29
2018-07-01T22:47:42.880Z,24.13
2018-07-01T22:50:08.848Z,24.07
2018-07-01T22:52:34.860Z,24.08
2018-07-01T22:55:00.849Z,24.08
2018-07-01T22:57:26.855Z,24.07
2018-07-01T22:59:52.867Z,24.11
2018-07-01T23:02:18.885Z,24.01
2018-07-01T23:04:44.855Z,24.07
2018-07-01T23:07:10.836Z,24.02
2018-07-01T23:09:36.824Z,24.00
2018-07-01T23:12:02.875Z,24.06
2018-07-01T23:14:28.871Z,24.17
2018-07-01T23:16:54.859Z,24.00
2018-07-01T23:19:20.861Z,24.01
2018-07-01T23:21:46.858Z,24.01
2018-07-01T23:24:12.876Z,23.99
2018-07-01T23:26:38.879Z,24.05
2018-07-01T23:29:04.888Z,23.94
2018-07-01T23:31:30.881Z,23.95
2018-07-01T23:33:56.847Z,23.90
2018-07-01T23:36:22.824Z,23.92
2018-07-01T23:38:48.836Z,23.85
2018-07-01T23:41:14.822Z,23.92
2018-07-01T23:43:41.134Z,23.90
2018-07-01T23:46:07.172Z,23.86
2018-07-01T23:48:33.167Z,23.84
2018-07-01T23:50:59.157Z,23.86
2018-07-01T23:53:28.861Z,23.91
2018-07-01T23:55:54.780Z,23.89
2018-07-01T23:58:20.758Z,23.90
